SEASEATTLE-TACOMA INTL
METARs for airports near SEA, sorted by distance:
N 0 nm 432' KSEA 060553Z 21013KT 10SM OVC013 07/04 A3019
NE 4 nm 32' KRNT 060553Z 18005KT 10SM OVC020 08/05 A3021
N 4 nm 21' KBFI 060553Z 17004KT 10SM OVC013 07/06 A3021
SW 15 nm 294' KTIW 060553Z 22008KT 10SM OVC015 07/04 A3021
W 18 nm 444' KPWT 060556Z 18003KT 10SM OVC010 06/06 A3020
S 19 nm 322' KTCM 060630Z 20007KT 10SM BKN021 OVC038 06/06 A3024
S 20 nm 537' KPLU 290555Z 00000KT 10SM OVC038 05/05 A2978
SW 24 nm 301' KGRF 060605Z 17007KT 10SM SCT022 05/03 A3021
N 27 nm 606' KPAE 060553Z 00000KT 10SM -RA OVC044 07/04 A3019
W 36 nm 272' KSHN 060553Z 26012G18KT 10SM CLR 06/04 A3018
SW 37 nm 207' KOLM 060554Z 20005KT 10SM FEW024 FEW030 06/03 A3023
N 43 nm 141' KAWO 060556Z 33003KT 10SM FEW018 OVC033 07/06 A3020
SW 53 nm 177' KCLS 060615Z VRB03KT 10SM OVC037 06/05 A3029
N 55 nm 47' KNUW 060553Z 27017G24KT 10SM SCT035 OVC040 08/05 A3021
NW 60 nm 13' KNOW 060610Z 29019KT 10SM CLR 08/04 A3019
N 61 nm 145' KBVS 060615Z VRB05KT 10SM FEW031 OVC040 08/07 A3019
NW 62 nm 291' KCLM 060553Z 29010KT 10SM CLR 08/02 A3020
NW 70 nm 112' KFHR 060553Z 24007KT 10SM BKN041 OVC060 07/04 A3017
SW 72 nm 17' KHQM 060553Z 29010KT 10SM OVC039 08/04 A3028
E 76 nm 1763' KELN 060553Z 31014KT 10SM CLR 06/01 A3004
N 79 nm 34' KORS 060615Z 16004KT 9SM BKN033 OVC041 08/08 A3016
N 81 nm 171' KBLI 060553Z 19007KT 10SM FEW020 BKN040 08/07 A3015
S 83 nm 20' KKLS 060556Z 00000KT 10SM SCT023 OVC044 07/04 A3032
NW 84 nm 64' CYYJ 060600Z 27002KT 20SM FEW040 BKN140 05/05 A3015
E 85 nm 1248' KEAT 060555Z 00000KT 10SM CLR 02/00 A3001
SE 89 nm 1098' KYKM 060631Z VRB03KT 1 1/4SM BR FEW001 M01/M01 A3008
W 95 nm 194' KUIL 060629Z 13004KT 10SM SCT019 BKN025 OVC031 06/04 A3026
TAFs for airports near SEA, sorted by distance:
N 0 nm 432' KSEA KSEA 060529Z 0606/0712 22009KT P6SM VCSH OVC012
  TEMPO 0606/0608 5SM -RA
  FM061200 19011KT P6SM OVC015
  FM062200 19012G18KT P6SM OVC025
  FM070900 20015G25KT P6SM -RA OVC025
N 4 nm 21' KBFI TAF KBFI 060529Z 0606/0706 VRB04KT P6SM VCSH BKN012 OVC020
  TEMPO 0606/0608 5SM -RA OVC012
  FM061200 18009KT P6SM OVC020
  FM062200 17012G18KT P6SM OVC028
W 18 nm 444' KPWT TAF KPWT 060529Z 0606/0706 VRB03KT P6SM OVC005
  FM061600 20012KT P6SM OVC007
  FM062200 20013G22KT P6SM OVC015
S 19 nm 322' KTCM TAF TAF KTCM 060500Z 0605/0711 22010G15KT 9999 OVC015 QNH3015INS
  TEMPO 0605/0607 22012G22KT 510004
  BECMG 0611/0612 20012KT 9000 -SHRA BKN010 OVC015 610409 510102 QNH3035INS
  BECMG 0615/0616 18012G18KT 9999 NSW OVC015 620409 510102 QNH3038INS
  BECMG 0619/0620 21012G22KT 9000 -SHRA BKN015 OVC020 610409 510004 QNH3025INS
  BECMG 0704/0705 18010G15KT 6000 -RA BR OVC020 620609 510103 QNH3020INS
  BECMG 0709/0710 18012KT 9000 -SHRA OVC030 610609 520202 QNH3019INS TX09/0621Z TN05/0612Z
SW 24 nm 301' KGRF TAF TAF KGRF 060500Z 0605/0711 22006KT 9999 SCT010 BKN020 QNH3015INS
  BECMG 0611/0612 20010KT 9999 -SHRA BKN010 OVC030 QNH3035INS
  BECMG 0621/0622 20012G18KT 9999 -SHRA BKN015 OVC030 520002 QNH3036INS TX08/0621Z TN05/0610Z
N 27 nm 606' KPAE KPAE 060529Z 0606/0706 VRB03KT P6SM VCSH BKN030 OVC040
  TEMPO 0606/0608 5SM -RA BKN007
  FM061500 17009KT P6SM OVC012
  FM062200 17015G22KT P6SM OVC020
SW 37 nm 207' KOLM KOLM 060529Z 0606/0706 25008KT P6SM BKN025 OVC040
  FM061400 21005KT 3SM BR VCSH OVC007
  FM061800 20012KT P6SM OVC015
  FM062200 19012G20KT P6SM OVC020
N 55 nm 47' KNUW TAF KNUW 0523/0623 26012G22KT 9999 VCSH SCT010 BKN039 BKN080 OVC120 630405 620909 QNH2985INS
  TEMPO 0523/0605 VRB06KT 9000 -RA BKN009 BKN030
  BECMG 0612/0614 16015G20KT 9999 VCSH SCT030 BKN110 630405 620909 QNH3012INS
  TEMPO 0614/0620 9000 -RA BKN025 T06/0613Z T09/0622Z FS30201
NW 62 nm 291' KCLM KCLM 060529Z 0606/0706 29010KT P6SM OVC040
  FM060900 25006KT P6SM SCT010 OVC030
  FM061300 VRB03KT P6SM VCSH SCT010 OVC030
  FM062200 VRB04KT P6SM VCSH OVC050
SW 72 nm 17' KHQM KHQM 060529Z 0606/0706 30012KT P6SM SCT015 OVC035
  FM061000 26007KT P6SM VCSH OVC012
  FM062100 22014G22KT P6SM OVC020
  FM070500 20015G27KT 6SM -RA OVC012
N 81 nm 171' KBLI KBLI 060529Z 0606/0706 VRB03KT P6SM SCT025 OVC060
  FM061300 16007KT P6SM -RA OVC025
  FM061800 17012G18KT P6SM VCSH OVC015
  FM062200 16015G25KT P6SM OVC030
E 85 nm 1248' KEAT TAF KEAT 060538Z 0606/0706 27006KT P6SM SKC
  FM061500 31005KT P6SM OVC080
  FM062100 25015G22KT P6SM BKN120
  FM070000 33005KT P6SM OVC100
SE 89 nm 1098' KYKM KYKM 060521Z 0606/0706 VRB05KT P6SM FEW100
  FM061400 31006KT P6SM BKN100
  FM070200 27005KT P6SM BKN100

Shortcut to this page: http://wxbay.com.

Data may contain errors.